Time;durP1;ratioP1;P1;durP2;ratioP2;P2;SDS_P1;SDS_P2;PMS_P1;PMS_P2;Temp;Humidity;BMP_temperature;BMP_pressure;BME280_temperature;BME280_humidity;BME280_pressure;Samples;Min_cycle;Max_cycle;Signal;HPM_P1;HPM_P2
2022/01/28 00:05:37;;;;;;;41.83;25.50;;;;;;;;;;6216469;23;20172;-75
2022/01/28 00:08:05;;;;;;;38.27;24.70;;;;;;;;;;6216091;23;20206;-69
2022/01/28 00:10:34;;;;;;;44.67;27.40;;;;;;;;;;6216161;23;20184;-72
2022/01/28 00:15:38;;;;;;;44.47;27.57;;;;;;;;;;6214529;23;20180;-65
2022/01/28 00:39:36;;;;;;;44.33;26.23;;;;;;;;;;6216040;23;20175;-65
2022/01/28 00:42:04;;;;;;;39.37;24.73;;;;;;;;;;6215674;23;20283;-64
2022/01/28 00:44:31;;;;;;;52.77;28.77;;;;;;;;;;6215939;23;20230;-64
2022/01/28 00:46:59;;;;;;;97.03;38.40;;;;;;;;;;6214535;23;20255;-64
2022/01/28 00:49:26;;;;;;;45.83;27.37;;;;;;;;;;6215573;23;20608;-64
2022/01/28 00:51:54;;;;;;;42.13;26.13;;;;;;;;;;6217161;23;20180;-64
2022/01/28 00:54:21;;;;;;;57.23;30.87;;;;;;;;;;6218137;23;20251;-64
2022/01/28 00:56:49;;;;;;;35.50;26.13;;;;;;;;;;6218060;23;20226;-65
2022/01/28 00:59:16;;;;;;;39.10;26.40;;;;;;;;;;6217723;23;20652;-65
2022/01/28 01:01:44;;;;;;;43.23;28.57;;;;;;;;;;6217678;23;20395;-64
2022/01/28 01:04:13;;;;;;;39.27;26.67;;;;;;;;;;6217754;23;20186;-64
2022/01/28 01:06:41;;;;;;;40.47;27.47;;;;;;;;;;6217372;23;20501;-64
2022/01/28 01:09:08;;;;;;;39.10;26.23;;;;;;;;;;6217540;23;20233;-64
2022/01/28 01:11:39;;;;;;;43.30;28.03;;;;;;;;;;6217614;23;20616;-66
2022/01/28 01:14:06;;;;;;;40.07;26.50;;;;;;;;;;6227495;23;20168;-65
2022/01/28 01:16:46;;;;;;;46.90;29.47;;;;;;;;;;6217497;23;20176;-64
2022/01/28 01:19:22;;;;;;;54.93;32.07;;;;;;;;;;6217616;23;20168;-65
2022/01/28 01:21:55;;;;;;;51.07;28.80;;;;;;;;;;6217670;23;20195;-66
2022/01/28 01:24:24;;;;;;;46.77;27.80;;;;;;;;;;6226895;23;20168;-69
2022/01/28 01:26:52;;;;;;;43.53;26.20;;;;;;;;;;6217971;23;20311;-65
2022/01/28 01:29:21;;;;;;;47.23;28.90;;;;;;;;;;6217390;23;20180;-67
2022/01/28 01:31:49;;;;;;;68.37;32.13;;;;;;;;;;6217155;23;20666;-68
2022/01/28 01:34:20;;;;;;;43.93;25.77;;;;;;;;;;6217517;23;20184;-64
2022/01/28 01:36:48;;;;;;;62.07;31.67;;;;;;;;;;6227241;23;20168;-64
2022/01/28 01:39:20;;;;;;;49.60;31.47;;;;;;;;;;6217321;23;20183;-65
2022/01/28 01:41:56;;;;;;;46.80;26.10;;;;;;;;;;6216915;23;20658;-65
2022/01/28 01:52:20;;;;;;;53.50;28.40;;;;;;;;;;6217086;23;20669;-65
2022/01/28 01:54:50;;;;;;;68.23;33.37;;;;;;;;;;6217374;23;20567;-65
2022/01/28 01:57:18;;;;;;;57.70;28.83;;;;;;;;;;6217456;23;20169;-65
2022/01/28 01:59:47;;;;;;;36.77;24.70;;;;;;;;;;6217313;23;20180;-66
2022/01/28 02:02:15;;;;;;;97.47;37.87;;;;;;;;;;6217169;23;20211;-76
2022/01/28 02:04:42;;;;;;;61.37;29.83;;;;;;;;;;6217343;23;20207;-75
2022/01/28 02:07:13;;;;;;;69.97;32.80;;;;;;;;;;6217353;23;20507;-64
2022/01/28 02:09:40;;;;;;;67.67;29.33;;;;;;;;;;6250366;23;20171;-77
2022/01/28 02:12:09;;;;;;;47.97;27.03;;;;;;;;;;6215743;23;20189;-77
2022/01/28 02:14:36;;;;;;;53.73;27.20;;;;;;;;;;6217146;23;20472;-65
2022/01/28 02:17:04;;;;;;;74.27;32.30;;;;;;;;;;6217130;23;20204;-64
2022/01/28 02:19:32;;;;;;;54.07;29.90;;;;;;;;;;6216625;23;20658;-66
2022/01/28 02:22:00;;;;;;;71.47;32.27;;;;;;;;;;6217094;23;20675;-65
2022/01/28 02:24:33;;;;;;;63.20;29.93;;;;;;;;;;6216849;23;20187;-64
2022/01/28 02:27:01;;;;;;;56.23;29.43;;;;;;;;;;6217000;23;20321;-65
2022/01/28 02:29:31;;;;;;;38.80;24.80;;;;;;;;;;6217123;23;20297;-65
2022/01/28 02:32:01;;;;;;;49.57;26.40;;;;;;;;;;6217152;23;20172;-65
2022/01/28 02:34:29;;;;;;;62.50;27.70;;;;;;;;;;6215675;23;20234;-65
2022/01/28 02:36:56;;;;;;;61.80;27.40;;;;;;;;;;6216655;23;20611;-64
2022/01/28 02:39:24;;;;;;;55.43;24.40;;;;;;;;;;6216737;23;20180;-65
2022/01/28 02:41:58;;;;;;;42.33;24.97;;;;;;;;;;6216667;23;20214;-65
2022/01/28 02:47:12;;;;;;;35.07;20.70;;;;;;;;;;6226730;23;20188;-65
2022/01/28 02:49:39;;;;;;;54.40;24.00;;;;;;;;;;6225098;23;20172;-64
2022/01/28 02:52:07;;;;;;;75.77;28.83;;;;;;;;;;6216723;23;20179;-64
2022/01/28 02:54:45;;;;;;;127.20;40.00;;;;;;;;;;6216396;23;20701;-64
2022/01/28 02:57:15;;;;;;;51.37;26.33;;;;;;;;;;6225226;23;20246;-64
2022/01/28 02:59:42;;;;;;;51.97;25.50;;;;;;;;;;6226472;23;20175;-64
2022/01/28 03:02:09;;;;;;;45.27;28.83;;;;;;;;;;6215096;23;20203;-64
2022/01/28 03:07:10;;;;;;;51.63;24.97;;;;;;;;;;6216744;23;20176;-65
2022/01/28 03:10:12;;;;;;;77.00;30.93;;;;;;;;;;6216550;23;20255;-66
2022/01/28 03:12:48;;;;;;;50.80;24.37;;;;;;;;;;6216130;23;20180;-66
2022/01/28 03:15:20;;;;;;;42.30;21.23;;;;;;;;;;6216417;23;20172;-66
2022/01/28 03:18:07;;;;;;;42.87;20.60;;;;;;;;;;6226373;23;20223;-67
2022/01/28 03:20:55;;;;;;;53.80;22.03;;;;;;;;;;6226510;23;20172;-65
2022/01/28 03:23:23;;;;;;;32.73;18.03;;;;;;;;;;6226366;23;20271;-65
2022/01/28 03:25:50;;;;;;;28.53;14.47;;;;;;;;;;6216018;23;20208;-65
2022/01/28 03:28:20;;;;;;;25.23;12.73;;;;;;;;;;6216438;23;20186;-64
2022/01/28 03:30:48;;;;;;;29.93;13.57;;;;;;;;;;6216479;23;20229;-65
2022/01/28 03:33:15;;;;;;;23.53;11.00;;;;;;;;;;6216109;23;20180;-65
2022/01/28 03:35:42;;;;;;;41.20;14.33;;;;;;;;;;6216072;23;20538;-66
2022/01/28 03:38:11;;;;;;;42.47;13.77;;;;;;;;;;6216200;23;20180;-64
2022/01/28 03:40:39;;;;;;;33.80;12.27;;;;;;;;;;6216270;23;20203;-64
2022/01/28 03:43:07;;;;;;;16.97;9.33;;;;;;;;;;6216299;23;20229;-65
2022/01/28 03:45:34;;;;;;;52.30;16.93;;;;;;;;;;6216375;23;20180;-64
2022/01/28 03:48:02;;;;;;;22.00;10.53;;;;;;;;;;6216548;23;20180;-66
2022/01/28 03:50:33;;;;;;;18.00;8.07;;;;;;;;;;6214589;23;20180;-68
2022/01/28 03:53:02;;;;;;;18.93;9.63;;;;;;;;;;6238826;23;20188;-65
2022/01/28 03:55:29;;;;;;;22.57;10.17;;;;;;;;;;6216266;23;20184;-64
2022/01/28 03:57:57;;;;;;;33.87;14.37;;;;;;;;;;6216104;23;20234;-65
2022/01/28 04:00:27;;;;;;;28.07;11.17;;;;;;;;;;6216238;23;20180;-72
2022/01/28 04:03:05;;;;;;;19.03;10.57;;;;;;;;;;6226146;23;20198;-71
2022/01/28 04:13:36;;;;;;;46.03;16.60;;;;;;;;;;6226334;23;20165;-76
2022/01/28 04:18:31;;;;;;;30.47;14.30;;;;;;;;;;6216062;23;20211;-69
2022/01/28 04:20:58;;;;;;;31.27;14.20;;;;;;;;;;6215736;23;20604;-70
2022/01/28 04:23:26;;;;;;;92.33;25.63;;;;;;;;;;6215926;23;20207;-65
2022/01/28 04:25:53;;;;;;;33.93;17.17;;;;;;;;;;6216006;23;20208;-65
2022/01/28 04:28:20;;;;;;;40.00;15.90;;;;;;;;;;6217779;23;20495;-64
2022/01/28 04:30:47;;;;;;;38.27;15.87;;;;;;;;;;6218084;23;20190;-64
2022/01/28 04:33:15;;;;;;;29.77;13.77;;;;;;;;;;6218081;23;20211;-65
2022/01/28 04:35:45;;;;;;;21.87;11.87;;;;;;;;;;6218032;23;20238;-65
2022/01/28 04:38:39;;;;;;;17.40;11.47;;;;;;;;;;6217764;23;20169;-65
2022/01/28 04:41:13;;;;;;;99.37;27.10;;;;;;;;;;6217484;23;20222;-65
2022/01/28 04:43:50;;;;;;;26.63;15.17;;;;;;;;;;6217969;23;20200;-65
2022/01/28 04:47:05;;;;;;;34.93;19.87;;;;;;;;;;6217931;23;20219;-64
2022/01/28 04:49:29;;;;;;;27.70;16.83;;;;;;;;;;6210565;23;20695;-64
2022/01/28 04:52:26;;;;;;;32.77;17.90;;;;;;;;;;6217852;23;20176;-64
2022/01/28 04:55:04;;;;;;;25.53;15.67;;;;;;;;;;6218244;23;20182;-64
2022/01/28 05:13:50;;;;;;;65.07;23.53;;;;;;;;;;6189220;23;20180;-71
2022/01/28 05:26:59;;;;;;;26.70;15.13;;;;;;;;;;6215524;23;20535;-66
2022/01/28 05:29:26;;;;;;;51.80;18.50;;;;;;;;;;6215490;23;20214;-68
2022/01/28 05:31:54;;;;;;;32.17;14.57;;;;;;;;;;6208250;23;20211;-74
2022/01/28 05:34:27;;;;;;;37.00;16.90;;;;;;;;;;6215285;23;20697;-69
2022/01/28 05:36:55;;;;;;;25.53;13.53;;;;;;;;;;6213497;23;20207;-64
2022/01/28 05:39:22;;;;;;;33.20;17.70;;;;;;;;;;6213613;23;20204;-74
2022/01/28 05:41:50;;;;;;;33.27;17.93;;;;;;;;;;6237245;23;20212;-67
2022/01/28 05:44:18;;;;;;;56.23;22.07;;;;;;;;;;6214975;23;20211;-67
2022/01/28 05:46:46;;;;;;;54.17;22.83;;;;;;;;;;6213782;23;20510;-64
2022/01/28 05:49:13;;;;;;;30.10;17.30;;;;;;;;;;6214116;23;20314;-76
2022/01/28 05:51:42;;;;;;;45.17;20.60;;;;;;;;;;6214776;23;20200;-64
2022/01/28 05:54:10;;;;;;;34.17;19.80;;;;;;;;;;6214954;23;20242;-65
2022/01/28 05:56:37;;;;;;;27.90;16.60;;;;;;;;;;6214524;23;20212;-68
2022/01/28 05:59:05;;;;;;;71.43;27.40;;;;;;;;;;6214742;23;20204;-77
2022/01/28 06:01:32;;;;;;;61.67;23.63;;;;;;;;;;6214057;23;20235;-78
2022/01/28 06:04:00;;;;;;;50.87;24.60;;;;;;;;;;6214409;23;20549;-69
2022/01/28 06:06:28;;;;;;;45.57;20.23;;;;;;;;;;6214728;23;20211;-74
2022/01/28 06:08:56;;;;;;;26.37;17.03;;;;;;;;;;6214757;23;20528;-79
2022/01/28 06:11:24;;;;;;;35.60;19.57;;;;;;;;;;6214737;23;20204;-84
2022/01/28 06:13:52;;;;;;;35.13;20.90;;;;;;;;;;6214324;23;20210;-73
2022/01/28 06:16:19;;;;;;;44.20;21.80;;;;;;;;;;6213540;23;20671;-73
2022/01/28 06:18:47;;;;;;;33.23;19.67;;;;;;;;;;6215194;23;20204;-68
2022/01/28 06:21:14;;;;;;;28.10;17.77;;;;;;;;;;6238372;23;20204;-70
2022/01/28 06:23:42;;;;;;;27.17;17.27;;;;;;;;;;6214363;23;20304;-73
2022/01/28 06:26:09;;;;;;;27.43;17.47;;;;;;;;;;6185852;23;1235236;-71
2022/01/28 06:28:37;;;;;;;42.67;19.60;;;;;;;;;;6215807;23;20239;-69
2022/01/28 06:31:04;;;;;;;26.80;18.83;;;;;;;;;;6215663;23;20211;-68
2022/01/28 06:33:31;;;;;;;34.00;18.17;;;;;;;;;;6216716;23;20234;-71
2022/01/28 06:35:59;;;;;;;26.47;15.83;;;;;;;;;;6216281;23;20204;-79
2022/01/28 06:38:26;;;;;;;30.23;17.53;;;;;;;;;;6216025;23;20204;-71
2022/01/28 06:40:53;;;;;;;23.10;14.17;;;;;;;;;;6216146;23;20208;-80
2022/01/28 06:43:20;;;;;;;55.13;20.13;;;;;;;;;;6215800;23;20216;-69
2022/01/28 06:45:48;;;;;;;43.53;18.37;;;;;;;;;;6215627;23;20251;-67
2022/01/28 06:48:19;;;;;;;27.10;12.10;;;;;;;;;;6215570;23;20208;-77
2022/01/28 06:50:47;;;;;;;40.00;16.17;;;;;;;;;;6215613;23;20204;-68
2022/01/28 06:53:15;;;;;;;17.20;10.37;;;;;;;;;;6215780;23;20204;-68
2022/01/28 06:55:43;;;;;;;11.90;7.10;;;;;;;;;;6216095;23;20206;-67
2022/01/28 06:58:10;;;;;;;18.83;9.40;;;;;;;;;;6215972;23;20211;-72
2022/01/28 07:00:39;;;;;;;27.97;10.00;;;;;;;;;;6215470;23;20203;-67
2022/01/28 07:03:12;;;;;;;34.57;11.10;;;;;;;;;;6215657;23;20215;-68
2022/01/28 07:05:40;;;;;;;22.27;8.13;;;;;;;;;;6216422;23;20208;-79
2022/01/28 07:08:08;;;;;;;20.67;8.30;;;;;;;;;;6216087;23;20211;-72
2022/01/28 07:10:35;;;;;;;32.40;12.17;;;;;;;;;;6216609;23;20180;-77
2022/01/28 07:13:03;;;;;;;13.77;7.97;;;;;;;;;;6214747;23;20234;-78
2022/01/28 07:15:30;;;;;;;24.80;9.57;;;;;;;;;;6216511;23;20180;-74
2022/01/28 07:18:01;;;;;;;27.43;10.63;;;;;;;;;;6216476;23;20180;-69
2022/01/28 07:20:31;;;;;;;15.27;7.73;;;;;;;;;;6226255;23;20600;-75
2022/01/28 07:22:58;;;;;;;16.13;7.07;;;;;;;;;;6216604;23;20196;-77
2022/01/28 07:25:26;;;;;;;14.33;6.67;;;;;;;;;;6216025;23;20208;-77
2022/01/28 07:27:53;;;;;;;13.90;7.23;;;;;;;;;;6216564;23;20180;-72
2022/01/28 07:30:20;;;;;;;18.90;8.47;;;;;;;;;;6216641;23;20203;-79
2022/01/28 07:32:51;;;;;;;5.90;5.30;;;;;;;;;;6216460;23;20328;-79
2022/01/28 07:35:19;;;;;;;16.33;6.57;;;;;;;;;;6216093;23;20244;-79
2022/01/28 07:37:46;;;;;;;8.47;4.10;;;;;;;;;;6216395;23;20186;-75
2022/01/28 07:40:13;;;;;;;10.40;5.20;;;;;;;;;;6215937;23;20537;-73
2022/01/28 07:42:41;;;;;;;9.90;5.03;;;;;;;;;;6239704;23;20207;-74
2022/01/28 07:45:11;;;;;;;8.43;4.93;;;;;;;;;;6214898;23;20180;-75
2022/01/28 07:47:38;;;;;;;5.87;3.70;;;;;;;;;;6216378;23;20179;-74
2022/01/28 07:50:07;;;;;;;26.50;8.37;;;;;;;;;;6215599;23;20653;-69
2022/01/28 07:52:35;;;;;;;26.20;7.90;;;;;;;;;;6215928;23;20555;-76
2022/01/28 07:55:04;;;;;;;12.37;6.60;;;;;;;;;;6216118;23;20212;-72
2022/01/28 07:57:31;;;;;;;14.57;5.93;;;;;;;;;;6215781;23;20184;-73
2022/01/28 07:59:58;;;;;;;12.43;5.57;;;;;;;;;;6216039;23;20260;-71
2022/01/28 08:02:27;;;;;;;15.97;7.00;;;;;;;;;;6216187;23;20180;-76
2022/01/28 08:04:55;;;;;;;25.97;10.40;;;;;;;;;;6216217;23;20191;-78
2022/01/28 08:07:22;;;;;;;19.83;7.10;;;;;;;;;;6216259;23;20187;-75
2022/01/28 08:09:50;;;;;;;23.80;8.40;;;;;;;;;;6216023;23;20180;-74
2022/01/28 08:12:17;;;;;;;22.87;8.47;;;;;;;;;;6215910;23;20615;-69
2022/01/28 08:14:44;;;;;;;16.37;8.00;;;;;;;;;;6215964;23;20184;-75
2022/01/28 08:17:11;;;;;;;13.80;6.23;;;;;;;;;;6214531;23;20184;-73
2022/01/28 08:19:39;;;;;;;12.33;6.80;;;;;;;;;;6215832;23;20223;-72
2022/01/28 08:22:07;;;;;;;21.27;9.47;;;;;;;;;;6216224;23;20226;-77
2022/01/28 08:24:33;;;;;;;24.37;9.30;;;;;;;;;;6216296;23;20667;-77
2022/01/28 08:27:01;;;;;;;21.30;8.80;;;;;;;;;;6216203;23;20176;-75
2022/01/28 08:29:28;;;;;;;28.53;9.77;;;;;;;;;;6215805;23;20180;-75
2022/01/28 08:31:55;;;;;;;11.00;5.80;;;;;;;;;;6214372;23;20685;-73
2022/01/28 08:34:22;;;;;;;11.77;7.87;;;;;;;;;;6216159;23;20476;-74
2022/01/28 08:36:49;;;;;;;7.57;5.07;;;;;;;;;;6215863;23;20214;-78
2022/01/28 08:39:17;;;;;;;21.50;8.57;;;;;;;;;;6215853;23;20643;-71
2022/01/28 08:41:44;;;;;;;15.90;8.37;;;;;;;;;;6215894;23;20188;-75
2022/01/28 08:44:16;;;;;;;12.03;6.93;;;;;;;;;;6225738;23;20269;-75
2022/01/28 08:46:44;;;;;;;7.60;4.87;;;;;;;;;;6215871;23;20184;-69
2022/01/28 08:49:11;;;;;;;10.73;5.60;;;;;;;;;;6216016;23;20184;-69
2022/01/28 08:51:38;;;;;;;12.63;6.70;;;;;;;;;;6215633;23;20553;-69
2022/01/28 08:54:05;;;;;;;13.47;5.73;;;;;;;;;;6215949;23;20210;-77
2022/01/28 08:56:33;;;;;;;12.57;7.27;;;;;;;;;;6215780;23;20213;-76
2022/01/28 08:59:09;;;;;;;25.97;9.43;;;;;;;;;;6216092;23;20172;-70
2022/01/28 09:01:37;;;;;;;13.83;6.87;;;;;;;;;;6215791;23;20180;-74
2022/01/28 09:04:04;;;;;;;9.80;6.43;;;;;;;;;;6215700;23;20235;-69
2022/01/28 09:06:31;;;;;;;8.30;5.33;;;;;;;;;;6215907;23;20258;-67
2022/01/28 09:09:01;;;;;;;15.27;6.97;;;;;;;;;;6215496;23;20180;-68
2022/01/28 09:13:55;;;;;;;37.63;11.17;;;;;;;;;;6240178;23;20204;-69
2022/01/28 09:16:23;;;;;;;11.40;5.73;;;;;;;;;;6216954;23;20204;-73
2022/01/28 09:18:50;;;;;;;10.13;5.67;;;;;;;;;;6217096;23;20209;-70
2022/01/28 09:21:19;;;;;;;8.13;4.80;;;;;;;;;;6217209;23;20207;-69
2022/01/28 09:23:47;;;;;;;12.50;6.17;;;;;;;;;;6215199;23;20239;-73
2022/01/28 09:26:14;;;;;;;8.93;5.53;;;;;;;;;;6215151;23;20215;-74
2022/01/28 09:28:42;;;;;;;19.03;7.43;;;;;;;;;;6217273;23;20208;-74
2022/01/28 09:31:09;;;;;;;9.37;5.37;;;;;;;;;;6217058;23;20204;-74
2022/01/28 09:33:37;;;;;;;7.67;4.43;;;;;;;;;;6217100;23;20204;-71
2022/01/28 09:36:07;;;;;;;7.70;4.50;;;;;;;;;;6216412;23;20212;-74
2022/01/28 09:38:35;;;;;;;9.67;4.87;;;;;;;;;;6240705;23;20282;-76
2022/01/28 09:41:04;;;;;;;4.37;2.83;;;;;;;;;;6215971;23;20204;-70
2022/01/28 09:43:32;;;;;;;9.77;5.50;;;;;;;;;;6216218;23;20220;-71
2022/01/28 09:46:01;;;;;;;7.40;4.60;;;;;;;;;;6216932;23;20219;-69
2022/01/28 09:48:28;;;;;;;8.97;4.60;;;;;;;;;;6216202;23;20663;-71
2022/01/28 09:51:00;;;;;;;10.47;5.07;;;;;;;;;;6216990;23;20203;-74
2022/01/28 09:53:28;;;;;;;7.93;4.87;;;;;;;;;;6239791;23;20208;-74
2022/01/28 09:55:56;;;;;;;7.13;4.33;;;;;;;;;;6216269;23;20231;-73
2022/01/28 09:58:24;;;;;;;9.53;5.13;;;;;;;;;;6216141;23;20746;-75
2022/01/28 10:00:52;;;;;;;7.47;4.37;;;;;;;;;;6216854;23;20242;-75
2022/01/28 10:03:19;;;;;;;7.53;4.40;;;;;;;;;;6214290;23;20573;-74
2022/01/28 10:05:51;;;;;;;8.50;5.23;;;;;;;;;;6190502;23;20207;-78
2022/01/28 10:08:23;;;;;;;11.50;5.67;;;;;;;;;;6242266;23;20208;-75
2022/01/28 10:10:52;;;;;;;13.30;7.33;;;;;;;;;;6214666;23;20204;-77
2022/01/28 10:13:27;;;;;;;13.23;6.60;;;;;;;;;;6215000;23;20210;-74
2022/01/28 10:15:59;;;;;;;14.33;6.40;;;;;;;;;;6214880;23;20491;-73
2022/01/28 10:18:46;;;;;;;12.80;6.63;;;;;;;;;;6213399;23;20230;-71
2022/01/28 10:21:36;;;;;;;19.60;6.83;;;;;;;;;;6218897;23;20203;-71
2022/01/28 10:24:21;;;;;;;17.37;8.50;;;;;;;;;;6189629;23;20219;-67
2022/01/28 10:27:17;;;;;;;12.13;6.97;;;;;;;;;;6214258;23;20212;-69
2022/01/28 10:29:44;;;;;;;4.00;3.37;;;;;;;;;;6216367;23;20219;-70
2022/01/28 10:32:13;;;;;;;12.37;6.73;;;;;;;;;;6214892;23;20219;-69
2022/01/28 10:34:44;;;;;;;6.07;3.43;;;;;;;;;;6214982;23;20325;-70
2022/01/28 10:37:14;;;;;;;8.90;5.80;;;;;;;;;;6214625;23;20204;-68
2022/01/28 10:39:53;;;;;;;5.70;3.10;;;;;;;;;;6214032;23;20207;-69
2022/01/28 10:42:25;;;;;;;5.40;3.27;;;;;;;;;;6190170;23;20222;-67
2022/01/28 10:44:55;;;;;;;15.53;6.17;;;;;;;;;;6216307;23;20222;-70
2022/01/28 10:47:36;;;;;;;12.37;5.13;;;;;;;;;;6215105;23;20223;-69
2022/01/28 10:50:25;;;;;;;5.77;2.70;;;;;;;;;;6215996;23;20211;-67
2022/01/28 10:53:13;;;;;;;6.17;2.17;;;;;;;;;;6215768;23;20204;-67
2022/01/28 10:55:44;;;;;;;7.87;2.80;;;;;;;;;;6215670;23;20291;-66
2022/01/28 10:58:14;;;;;;;8.23;3.00;;;;;;;;;;6215773;23;20639;-67
2022/01/28 11:00:46;;;;;;;5.37;2.33;;;;;;;;;;6215042;23;20204;-64
2022/01/28 11:03:17;;;;;;;7.03;3.73;;;;;;;;;;6218118;23;20211;-64
2022/01/28 11:05:45;;;;;;;8.70;3.00;;;;;;;;;;6240791;23;20208;-63
2022/01/28 11:08:13;;;;;;;5.70;2.60;;;;;;;;;;6215670;23;20204;-64
2022/01/28 11:10:42;;;;;;;8.27;3.17;;;;;;;;;;6215382;23;20223;-63
2022/01/28 11:13:09;;;;;;;6.47;2.50;;;;;;;;;;6213989;23;20663;-63
2022/01/28 11:15:37;;;;;;;3.00;1.70;;;;;;;;;;6214804;23;20208;-64
2022/01/28 11:18:07;;;;;;;5.83;2.93;;;;;;;;;;6214171;23;20204;-66
2022/01/28 11:20:48;;;;;;;7.27;2.60;;;;;;;;;;6215906;23;20200;-64
2022/01/28 11:23:41;;;;;;;6.87;2.33;;;;;;;;;;6213794;23;20597;-64
2022/01/28 11:26:19;;;;;;;4.33;1.80;;;;;;;;;;6204010;23;20215;-68
2022/01/28 11:28:55;;;;;;;4.77;3.13;;;;;;;;;;6216806;23;20208;-66
2022/01/28 11:31:50;;;;;;;2.40;1.90;;;;;;;;;;6218803;23;20211;-66
2022/01/28 11:34:30;;;;;;;5.90;3.17;;;;;;;;;;6215348;23;20204;-66
2022/01/28 11:37:19;;;;;;;3.30;1.97;;;;;;;;;;6216704;23;20258;-64
2022/01/28 11:39:47;;;;;;;5.20;2.17;;;;;;;;;;6215109;23;20266;-65
2022/01/28 11:42:23;;;;;;;3.07;2.20;;;;;;;;;;6215635;23;20585;-66
2022/01/28 11:44:50;;;;;;;4.43;2.27;;;;;;;;;;6216338;23;20215;-64
2022/01/28 11:47:30;;;;;;;2.00;1.70;;;;;;;;;;6215796;23;20286;-66
2022/01/28 11:50:05;;;;;;;3.33;2.70;;;;;;;;;;6215046;23;20560;-67
2022/01/28 11:52:34;;;;;;;3.37;1.93;;;;;;;;;;6214555;23;20235;-65
2022/01/28 11:55:15;;;;;;;4.43;2.70;;;;;;;;;;6214458;23;20204;-66
2022/01/28 11:57:55;;;;;;;5.73;2.73;;;;;;;;;;6215954;23;20207;-64
2022/01/28 12:00:30;;;;;;;5.30;2.87;;;;;;;;;;6214169;23;20207;-66
2022/01/28 12:02:59;;;;;;;3.07;2.20;;;;;;;;;;6216191;23;20209;-64
2022/01/28 12:05:31;;;;;;;3.10;1.83;;;;;;;;;;6238674;23;20238;-65
2022/01/28 12:08:03;;;;;;;4.83;2.23;;;;;;;;;;6216087;23;20246;-65
2022/01/28 12:10:33;;;;;;;2.97;1.83;;;;;;;;;;6238136;23;20326;-64
2022/01/28 12:13:03;;;;;;;2.60;1.60;;;;;;;;;;6215754;23;20204;-66
2022/01/28 12:15:58;;;;;;;1.87;1.10;;;;;;;;;;6238117;23;20208;-65
2022/01/28 12:18:45;;;;;;;1.47;1.30;;;;;;;;;;6215308;23;20211;-67
2022/01/28 12:21:14;;;;;;;2.77;1.70;;;;;;;;;;6195618;23;20204;-65
2022/01/28 12:23:43;;;;;;;1.80;1.33;;;;;;;;;;6213081;23;20204;-65
2022/01/28 12:26:16;;;;;;;2.20;1.50;;;;;;;;;;6215009;23;20219;-69
2022/01/28 12:28:49;;;;;;;2.40;1.47;;;;;;;;;;6213398;23;20211;-65
2022/01/28 12:31:19;;;;;;;2.77;1.73;;;;;;;;;;6218919;23;20687;-64
2022/01/28 12:33:49;;;;;;;1.80;1.47;;;;;;;;;;6213446;23;20545;-65
2022/01/28 12:36:24;;;;;;;2.17;1.73;;;;;;;;;;6214281;23;20220;-67
2022/01/28 12:41:42;;;;;;;2.63;1.80;;;;;;;;;;6236001;23;20210;-65
2022/01/28 12:44:10;;;;;;;3.93;1.90;;;;;;;;;;6215040;23;20285;-65
2022/01/28 12:46:39;;;;;;;3.03;1.70;;;;;;;;;;6215691;23;20204;-67
2022/01/28 12:49:09;;;;;;;2.70;1.93;;;;;;;;;;6215185;23;20640;-67
2022/01/28 12:51:38;;;;;;;4.10;2.23;;;;;;;;;;6219448;23;20211;-65
2022/01/28 12:54:06;;;;;;;3.63;1.67;;;;;;;;;;6216177;23;20211;-63
2022/01/28 12:56:35;;;;;;;3.47;2.30;;;;;;;;;;6217236;23;20282;-63
2022/01/28 12:59:03;;;;;;;4.60;1.70;;;;;;;;;;6216635;23;20283;-63
2022/01/28 13:01:31;;;;;;;5.63;1.90;;;;;;;;;;6217244;23;20211;-67
2022/01/28 13:04:09;;;;;;;2.23;1.57;;;;;;;;;;6217057;23;20207;-67
2022/01/28 13:09:22;;;;;;;5.73;2.07;;;;;;;;;;6216372;23;20211;-65
2022/01/28 13:11:58;;;;;;;4.77;1.93;;;;;;;;;;6217079;23;20283;-67
2022/01/28 13:14:33;;;;;;;6.23;2.10;;;;;;;;;;6216517;23;20659;-67
2022/01/28 13:17:08;;;;;;;5.33;1.83;;;;;;;;;;6216434;23;20258;-65
2022/01/28 13:19:35;;;;;;;2.87;1.40;;;;;;;;;;6217031;23;20215;-65
2022/01/28 13:22:03;;;;;;;3.93;1.50;;;;;;;;;;6217324;23;20215;-68
2022/01/28 13:24:30;;;;;;;6.47;2.40;;;;;;;;;;6214707;23;20266;-68
2022/01/28 13:27:05;;;;;;;6.13;2.10;;;;;;;;;;6217713;23;20211;-68
2022/01/28 13:29:44;;;;;;;4.37;2.30;;;;;;;;;;6216850;23;20204;-68
2022/01/28 13:32:14;;;;;;;3.90;1.80;;;;;;;;;;6216831;23;20655;-67
2022/01/28 13:34:46;;;;;;;7.07;2.20;;;;;;;;;;6216953;23;20204;-68
2022/01/28 13:37:31;;;;;;;2.70;1.30;;;;;;;;;;6220871;23;20229;-67
2022/01/28 13:39:59;;;;;;;5.67;2.40;;;;;;;;;;6216619;23;20255;-68
2022/01/28 13:42:26;;;;;;;4.40;1.83;;;;;;;;;;6217310;23;20202;-69
2022/01/28 13:44:53;;;;;;;2.60;1.60;;;;;;;;;;6217038;23;20219;-69
2022/01/28 13:47:21;;;;;;;3.20;1.53;;;;;;;;;;6217291;23;20204;-64
2022/01/28 13:49:57;;;;;;;6.43;1.73;;;;;;;;;;6214998;23;20204;-67
2022/01/28 13:52:40;;;;;;;2.93;1.50;;;;;;;;;;6220393;23;20199;-66
2022/01/28 13:55:31;;;;;;;3.67;1.83;;;;;;;;;;6217176;23;20203;-67
2022/01/28 13:58:03;;;;;;;6.97;2.90;;;;;;;;;;6216796;23;20208;-65
2022/01/28 14:00:47;;;;;;;4.67;1.97;;;;;;;;;;6216336;23;20598;-69
2022/01/28 14:03:21;;;;;;;3.50;1.60;;;;;;;;;;6220512;23;20200;-69
2022/01/28 14:05:48;;;;;;;4.03;1.97;;;;;;;;;;6216226;23;20659;-71
2022/01/28 14:08:16;;;;;;;4.37;2.03;;;;;;;;;;6216201;23;20211;-66
2022/01/28 14:10:43;;;;;;;4.83;1.93;;;;;;;;;;6216682;23;20214;-67
2022/01/28 14:13:20;;;;;;;2.00;1.40;;;;;;;;;;6215442;23;20739;-70
2022/01/28 14:16:11;;;;;;;2.07;1.30;;;;;;;;;;6216325;23;20208;-72
2022/01/28 14:18:38;;;;;;;3.23;1.30;;;;;;;;;;6216575;23;20730;-70
2022/01/28 14:21:06;;;;;;;4.53;1.60;;;;;;;;;;6212820;23;20239;-73
2022/01/28 14:23:51;;;;;;;3.37;1.77;;;;;;;;;;6189684;23;20238;-68
2022/01/28 14:26:20;;;;;;;2.13;1.50;;;;;;;;;;6215323;23;20215;-70
2022/01/28 14:31:25;;;;;;;2.43;1.53;;;;;;;;;;6212977;23;20573;-69
2022/01/28 14:33:54;;;;;;;4.27;2.07;;;;;;;;;;6213132;23;20362;-71
2022/01/28 14:36:34;;;;;;;4.17;1.77;;;;;;;;;;6214032;23;20295;-72
2022/01/28 14:39:10;;;;;;;6.07;1.50;;;;;;;;;;6215172;23;20270;-69
2022/01/28 14:41:38;;;;;;;3.83;1.93;;;;;;;;;;6215031;23;20287;-68
2022/01/28 14:44:06;;;;;;;4.67;1.90;;;;;;;;;;6214734;23;20285;-72
2022/01/28 14:46:33;;;;;;;5.83;2.30;;;;;;;;;;6214667;23;20212;-73
2022/01/28 14:49:06;;;;;;;2.20;1.13;;;;;;;;;;6213768;23;20266;-76
2022/01/28 14:51:34;;;;;;;3.10;1.50;;;;;;;;;;6215055;23;20441;-72
2022/01/28 14:54:02;;;;;;;4.63;1.70;;;;;;;;;;6211907;23;20200;-73
2022/01/28 14:56:30;;;;;;;3.47;1.70;;;;;;;;;;6213805;23;20211;-77
2022/01/28 14:59:00;;;;;;;2.57;1.67;;;;;;;;;;6213036;23;20230;-75
2022/01/28 15:01:28;;;;;;;3.20;1.80;;;;;;;;;;6214428;23;20298;-71
2022/01/28 15:03:58;;;;;;;3.53;1.77;;;;;;;;;;6212716;23;20647;-68
2022/01/28 15:06:26;;;;;;;3.07;1.80;;;;;;;;;;6211946;23;20228;-69
2022/01/28 15:08:55;;;;;;;3.87;1.53;;;;;;;;;;6211951;23;20212;-69
2022/01/28 15:11:32;;;;;;;4.60;1.90;;;;;;;;;;6213070;23;20208;-69
2022/01/28 15:14:00;;;;;;;4.33;1.40;;;;;;;;;;6213693;23;20233;-69
2022/01/28 15:16:28;;;;;;;5.37;1.83;;;;;;;;;;6213133;23;20212;-72
2022/01/28 15:18:56;;;;;;;5.57;1.50;;;;;;;;;;6188256;23;20204;-70
2022/01/28 15:21:23;;;;;;;3.80;1.60;;;;;;;;;;6189161;23;20212;-74
2022/01/28 15:23:51;;;;;;;3.53;1.60;;;;;;;;;;6211715;23;20200;-71
2022/01/28 15:26:18;;;;;;;3.13;1.80;;;;;;;;;;6213688;23;20216;-73
2022/01/28 15:36:50;;;;;;;8.17;2.00;;;;;;;;;;6210409;23;20215;-73
2022/01/28 15:39:18;;;;;;;3.43;1.80;;;;;;;;;;6188365;23;20200;-69
2022/01/28 15:41:46;;;;;;;3.00;1.83;;;;;;;;;;6212419;23;20212;-74
2022/01/28 15:44:13;;;;;;;2.97;1.70;;;;;;;;;;6237035;23;20204;-68
2022/01/28 15:46:41;;;;;;;2.87;1.57;;;;;;;;;;6211611;23;20269;-73
2022/01/28 15:49:09;;;;;;;2.77;1.43;;;;;;;;;;6211976;23;20203;-69
2022/01/28 15:51:36;;;;;;;2.80;1.40;;;;;;;;;;6237823;23;20574;-69
2022/01/28 15:54:05;;;;;;;4.57;2.30;;;;;;;;;;6215268;23;20212;-69
2022/01/28 15:56:34;;;;;;;5.00;2.20;;;;;;;;;;6216252;23;20211;-69
2022/01/28 15:59:01;;;;;;;3.63;2.20;;;;;;;;;;6214053;23;20219;-71
2022/01/28 16:01:29;;;;;;;3.67;2.00;;;;;;;;;;6214553;23;20211;-71
2022/01/28 16:03:56;;;;;;;4.47;1.77;;;;;;;;;;6213256;23;20279;-69
2022/01/28 16:06:26;;;;;;;3.70;1.80;;;;;;;;;;6212792;23;20239;-70
2022/01/28 16:08:55;;;;;;;2.97;1.67;;;;;;;;;;6213394;23;20212;-69
2022/01/28 16:11:29;;;;;;;5.77;2.27;;;;;;;;;;6214146;23;20204;-69
2022/01/28 16:14:02;;;;;;;2.63;1.97;;;;;;;;;;6213560;23;20282;-67
2022/01/28 16:19:10;;;;;;;14.43;3.60;;;;;;;;;;6213556;23;20216;-68
2022/01/28 16:21:38;;;;;;;10.63;4.67;;;;;;;;;;6213331;23;20211;-67
2022/01/28 16:24:05;;;;;;;6.40;3.13;;;;;;;;;;6215747;23;20227;-66
2022/01/28 16:26:32;;;;;;;10.63;3.40;;;;;;;;;;6216158;23;20538;-64
2022/01/28 16:29:00;;;;;;;3.90;1.97;;;;;;;;;;6218048;23;20214;-68
2022/01/28 16:31:27;;;;;;;6.70;2.80;;;;;;;;;;6217651;23;20733;-70